createdAt,value
2016-06-05T00:00:01.039Z,24.27
2016-06-05T00:01:01.027Z,24.27
2016-06-05T00:02:01.014Z,24.23
2016-06-05T00:03:01.000Z,24.16
2016-06-05T00:04:00.988Z,24.19
2016-06-05T00:05:00.991Z,24.24
2016-06-05T00:06:00.978Z,24.14
2016-06-05T00:07:01.011Z,24.27
2016-06-05T00:08:00.935Z,24.23
2016-06-05T00:09:00.939Z,24.23
2016-06-05T00:10:00.926Z,24.21
2016-06-05T00:11:00.897Z,24.19
2016-06-05T00:12:00.932Z,24.16
2016-06-05T00:13:01.013Z,24.23
2016-06-05T00:14:00.874Z,24.18
2016-06-05T00:15:00.845Z,24.19
2016-06-05T00:16:00.832Z,24.21
2016-06-05T00:17:00.835Z,24.15
2016-06-05T00:18:00.807Z,24.21
2016-06-05T00:19:00.810Z,24.12
2016-06-05T00:20:00.890Z,24.16
2016-06-05T00:21:00.784Z,24.19
2016-06-05T00:22:00.771Z,24.27
2016-06-05T00:23:00.757Z,24.15
2016-06-05T00:24:00.745Z,24.15
2016-06-05T00:25:00.732Z,24.14
2016-06-05T00:26:00.720Z,24.18
2016-06-05T00:27:00.706Z,24.29
2016-06-05T00:28:00.943Z,24.23
2016-06-05T00:29:00.680Z,24.15
2016-06-05T00:30:00.667Z,24.34
2016-06-05T00:31:00.654Z,24.14
2016-06-05T00:32:00.656Z,24.16
2016-06-05T00:33:00.628Z,24.15
2016-06-05T00:34:00.616Z,24.12
2016-06-05T00:35:00.618Z,24.23
2016-06-05T00:36:00.949Z,24.14
2016-06-05T00:37:00.592Z,24.21
2016-06-05T00:38:00.564Z,24.23
2016-06-05T00:39:00.566Z,24.08
2016-06-05T00:40:00.553Z,24.14
2016-06-05T00:41:00.541Z,24.12
2016-06-05T00:42:00.528Z,24.15
2016-06-05T00:43:01.921Z,24.14
2016-06-05T00:44:00.954Z,24.11
2016-06-05T00:45:00.489Z,24.06
2016-06-05T00:46:00.476Z,23.94
2016-06-05T00:47:00.306Z,23.9
2016-06-05T00:48:00.449Z,23.79
2016-06-05T00:49:00.437Z,23.79
2016-06-05T00:50:00.424Z,23.69
2016-06-05T00:51:00.427Z,23.6
2016-06-05T00:52:00.945Z,23.69
2016-06-05T00:53:00.385Z,23.78
2016-06-05T00:54:00.373Z,23.69
2016-06-05T00:55:00.375Z,23.71
2016-06-05T00:56:00.362Z,23.82
2016-06-05T00:57:00.349Z,23.86
2016-06-05T00:58:00.540Z,23.82
2016-06-05T00:59:00.308Z,23.89
2016-06-05T01:00:00.998Z,23.84
2016-06-05T01:01:00.298Z,23.77
2016-06-05T01:02:00.284Z,23.78
2016-06-05T01:03:00.271Z,23.63
2016-06-05T01:04:00.243Z,23.79
2016-06-05T01:05:00.245Z,23.67
2016-06-05T01:06:00.233Z,23.6
2016-06-05T01:07:00.267Z,23.54
2016-06-05T01:08:00.253Z,23.68
2016-06-05T01:09:00.194Z,23.6
2016-06-05T01:10:00.181Z,23.63
2016-06-05T01:11:00.169Z,23.63
2016-06-05T01:12:00.014Z,23.64
2016-06-05T01:13:00.189Z,23.6
2016-06-05T01:14:00.129Z,23.69
2016-06-05T01:15:00.132Z,23.62
2016-06-05T01:16:00.260Z,23.69
2016-06-05T01:17:00.090Z,23.6
2016-06-05T01:18:00.093Z,23.57
2016-06-05T01:19:00.065Z,23.57
2016-06-05T01:20:00.052Z,23.52
2016-06-05T01:21:00.039Z,23.56
2016-06-05T01:22:00.041Z,23.6
2016-06-05T01:23:00.013Z,23.52
2016-06-05T01:24:00.250Z,23.53
2016-06-05T01:24:59.987Z,23.53
2016-06-05T01:25:59.974Z,23.52
2016-06-05T01:26:59.976Z,23.57
2016-06-05T01:27:59.964Z,23.49
2016-06-05T01:28:59.951Z,23.41
2016-06-05T01:29:59.922Z,23.5
2016-06-05T01:30:59.910Z,23.59
2016-06-05T01:32:00.303Z,23.6
2016-06-05T01:32:59.883Z,23.79
2016-06-05T01:33:59.886Z,23.81
2016-06-05T01:34:59.873Z,23.87
2016-06-05T01:35:59.704Z,23.92
2016-06-05T01:36:59.864Z,23.94
2016-06-05T01:37:59.834Z,23.93
2016-06-05T01:38:59.774Z,23.96
2016-06-05T01:40:00.309Z,23.89
2016-06-05T01:40:59.811Z,24.05
2016-06-05T01:41:59.767Z,24.05
2016-06-05T01:42:59.630Z,24.04
2016-06-05T01:43:59.758Z,24.11
2016-06-05T01:44:59.744Z,24.08
2016-06-05T01:45:59.730Z,24.12
2016-06-05T01:46:59.921Z,24.12
2016-06-05T01:47:59.705Z,24
2016-06-05T01:48:59.692Z,24.15
2016-06-05T01:49:59.680Z,24.15
2016-06-05T01:50:59.666Z,24.02
2016-06-05T01:51:59.669Z,24.09
2016-06-05T01:52:59.656Z,24.15
2016-06-05T01:53:59.627Z,24.16
2016-06-05T01:54:59.912Z,24.14
2016-06-05T01:55:59.602Z,24.18
2016-06-05T01:56:59.604Z,24.15
2016-06-05T01:57:59.794Z,24.18
2016-06-05T01:58:59.562Z,24.19
2016-06-05T01:59:59.566Z,24.11
2016-06-05T02:00:59.537Z,24.14
2016-06-05T02:01:59.540Z,24.16
2016-06-05T02:02:59.934Z,24.16
2016-06-05T02:03:59.529Z,24.14
2016-06-05T02:04:59.517Z,24.19
2016-06-05T02:05:59.488Z,24.16
2016-06-05T02:06:59.522Z,24.18
2016-06-05T02:07:59.462Z,24.16
2016-06-05T02:08:59.449Z,24.06
2016-06-05T02:09:59.436Z,24.09
2016-06-05T02:10:59.939Z,23.94
2016-06-05T02:11:59.426Z,24.08
2016-06-05T02:13:00.069Z,24.11
2016-06-05T02:13:59.385Z,24.05
2016-06-05T02:14:59.371Z,24.09
2016-06-05T02:15:59.358Z,24.06
2016-06-05T02:16:59.361Z,24.08
2016-06-05T02:17:59.176Z,24
2016-06-05T02:18:59.929Z,24
2016-06-05T02:19:59.307Z,24.06
2016-06-05T02:20:59.154Z,24.05
2016-06-05T02:21:59.296Z,24.04
2016-06-05T02:22:59.268Z,24.04
2016-06-05T02:23:59.270Z,24
2016-06-05T02:24:59.242Z,24
2016-06-05T02:25:59.246Z,24.02
2016-06-05T02:26:59.248Z,24
2016-06-05T02:27:59.328Z,23.99
2016-06-05T02:28:59.221Z,23.96
2016-06-05T02:29:59.193Z,24.04
2016-06-05T02:30:59.181Z,23.93
2016-06-05T02:31:59.167Z,23.99
2016-06-05T02:32:59.170Z,23.99
2016-06-05T02:33:59.142Z,24.05
2016-06-05T02:34:59.237Z,24.05
2016-06-05T02:35:59.115Z,23.99
2016-06-05T02:36:59.103Z,23.99
2016-06-05T02:37:59.106Z,23.96
2016-06-05T02:38:59.092Z,23.94
2016-06-05T02:39:59.063Z,23.94
2016-06-05T02:40:59.083Z,24.06
2016-06-05T02:41:59.053Z,23.89
2016-06-05T02:42:59.555Z,23.99
2016-06-05T02:43:59.012Z,24.02
2016-06-05T02:44:58.999Z,23.94
2016-06-05T02:45:59.002Z,23.99
2016-06-05T02:46:59.005Z,23.96
2016-06-05T02:47:58.961Z,24.02
2016-06-05T02:48:58.963Z,23.97
2016-06-05T02:49:58.950Z,23.89
2016-06-05T02:50:59.235Z,24.02
2016-06-05T02:51:58.925Z,23.99
2016-06-05T02:52:58.911Z,24.04
2016-06-05T02:53:58.898Z,23.97
2016-06-05T02:54:58.886Z,23.9
2016-06-05T02:55:58.873Z,23.92
2016-06-05T02:56:58.859Z,23.89
2016-06-05T02:57:58.894Z,24.02
2016-06-05T02:59:00.021Z,23.94
2016-06-05T02:59:58.851Z,24
2016-06-05T03:00:58.807Z,24.02
2016-06-05T03:01:58.795Z,23.97
2016-06-05T03:02:58.782Z,23.97
2016-06-05T03:03:58.769Z,23.96
2016-06-05T03:04:58.756Z,23.9
2016-06-05T03:05:58.852Z,23.97
2016-06-05T03:06:58.777Z,23.94
2016-06-05T03:07:58.717Z,23.92
2016-06-05T03:08:58.719Z,23.93
2016-06-05T03:09:58.692Z,24.05
2016-06-05T03:10:58.679Z,24
2016-06-05T03:11:58.681Z,23.99
2016-06-05T03:12:59.434Z,23.93
2016-06-05T03:13:58.905Z,23.94
2016-06-05T03:14:58.627Z,23.89
2016-06-05T03:15:58.614Z,23.92
2016-06-05T03:16:58.600Z,23.94
2016-06-05T03:17:58.447Z,23.96
2016-06-05T03:18:58.590Z,23.93
2016-06-05T03:19:58.562Z,23.99
2016-06-05T03:20:58.565Z,23.92
2016-06-05T03:21:58.910Z,23.96
2016-06-05T03:22:58.538Z,23.92
2016-06-05T03:23:58.510Z,23.92
2016-06-05T03:24:58.513Z,23.97
2016-06-05T03:25:58.344Z,23.99
2016-06-05T03:26:58.487Z,23.94
2016-06-05T03:27:59.021Z,23.97
2016-06-05T03:28:58.555Z,23.96
2016-06-05T03:29:58.917Z,23.96
2016-06-05T03:30:58.435Z,23.96
2016-06-05T03:31:58.423Z,23.94
2016-06-05T03:32:58.409Z,23.94
2016-06-05T03:33:58.396Z,23.96
2016-06-05T03:34:58.384Z,23.96
2016-06-05T03:35:58.371Z,23.97
2016-06-05T03:36:58.358Z,23.89
2016-06-05T03:37:58.751Z,23.94
2016-06-05T03:38:58.332Z,23.99
2016-06-05T03:39:58.319Z,23.93
2016-06-05T03:40:58.306Z,23.94
2016-06-05T03:41:58.292Z,23.94
2016-06-05T03:42:58.515Z,23.96
2016-06-05T03:43:58.283Z,23.89
2016-06-05T03:44:58.269Z,23.97
2016-06-05T03:45:58.897Z,23.89
2016-06-05T03:46:58.244Z,23.9
2016-06-05T03:47:58.216Z,23.92
2016-06-05T03:48:58.219Z,24
2016-06-05T03:49:58.205Z,23.93
2016-06-05T03:50:58.192Z,23.92
2016-06-05T03:51:58.180Z,23.96
2016-06-05T03:52:58.166Z,23.96
2016-06-05T03:53:58.200Z,23.92
2016-06-05T03:54:58.141Z,23.99
2016-06-05T03:55:58.127Z,23.97
2016-06-05T03:56:58.115Z,23.93
2016-06-05T03:57:58.210Z,23.93
2016-06-05T03:58:58.260Z,23.9
2016-06-05T03:59:58.076Z,23.87
2016-06-05T04:00:58.063Z,23.93
2016-06-05T04:01:58.191Z,23.96
2016-06-05T04:02:58.037Z,23.9
2016-06-05T04:03:58.024Z,23.86
2016-06-05T04:04:58.012Z,23.93
2016-06-05T04:05:57.998Z,23.92
2016-06-05T04:06:57.829Z,23.92
2016-06-05T04:07:57.972Z,23.94
2016-06-05T04:08:57.959Z,23.93
2016-06-05T04:09:58.197Z,23.89
2016-06-05T04:10:57.934Z,23.92
2016-06-05T04:11:57.920Z,23.87
2016-06-05T04:12:57.923Z,23.9
2016-06-05T04:13:58.067Z,23.9
2016-06-05T04:14:57.882Z,23.93
2016-06-05T04:15:57.884Z,23.89
2016-06-05T04:16:57.863Z,23.82
2016-06-05T04:17:58.237Z,23.89
2016-06-05T04:18:57.908Z,23.94
2016-06-05T04:19:57.892Z,23.96
2016-06-05T04:20:57.892Z,23.94
2016-06-05T04:21:57.922Z,23.94
2016-06-05T04:22:57.932Z,23.94
2016-06-05T04:23:57.928Z,23.93
2016-06-05T04:24:57.926Z,23.92
2016-06-05T04:25:58.436Z,23.93
2016-06-05T04:26:57.936Z,23.92
2016-06-05T04:27:59.392Z,23.9
2016-06-05T04:28:57.985Z,23.94
2016-06-05T04:29:57.741Z,23.94
2016-06-05T04:30:57.889Z,23.92
2016-06-05T04:31:57.879Z,23.9
2016-06-05T04:32:57.870Z,23.92
2016-06-05T04:33:57.873Z,23.87
2016-06-05T04:34:57.862Z,23.96
2016-06-05T04:35:57.834Z,23.9
2016-06-05T04:36:57.822Z,23.89
2016-06-05T04:37:57.653Z,23.93
2016-06-05T04:38:57.798Z,23.87
2016-06-05T04:39:57.784Z,23.89
2016-06-05T04:40:57.773Z,23.92
2016-06-05T04:41:57.760Z,23.89
2016-06-05T04:42:57.482Z,23.89
2016-06-05T04:43:58.642Z,23.89
2016-06-05T04:44:57.739Z,23.89
2016-06-05T04:45:57.710Z,23.89
2016-06-05T04:46:57.714Z,23.92
2016-06-05T04:47:57.700Z,23.92
2016-06-05T04:48:57.531Z,23.93
2016-06-05T04:49:57.659Z,23.96
2016-06-05T04:50:57.661Z,23.94
2016-06-05T04:51:57.649Z,23.96
2016-06-05T04:52:57.620Z,23.9
2016-06-05T04:53:57.467Z,23.94
2016-06-05T04:54:57.594Z,23.94
2016-06-05T04:55:57.597Z,23.93
2016-06-05T04:56:57.583Z,23.93
2016-06-05T04:57:58.119Z,23.89
2016-06-05T04:58:57.558Z,23.96
2016-06-05T04:59:57.561Z,23.96
2016-06-05T05:00:57.532Z,23.92
2016-06-05T05:01:57.519Z,23.92
2016-06-05T05:02:57.507Z,23.9
2016-06-05T05:03:57.493Z,23.97
2016-06-05T05:04:57.480Z,23.94
2016-06-05T05:05:57.515Z,24
2016-06-05T05:06:57.518Z,23.93
2016-06-05T05:07:57.442Z,23.92
2016-06-05T05:08:57.445Z,23.94
2016-06-05T05:09:57.416Z,23.96
2016-06-05T05:10:57.404Z,23.93
2016-06-05T05:11:57.406Z,24.02
2016-06-05T05:12:58.080Z,23.94
2016-06-05T05:13:57.912Z,23.93
2016-06-05T05:14:57.461Z,23.99
2016-06-05T05:15:57.339Z,23.94
2016-06-05T05:16:57.341Z,23.93
2016-06-05T05:17:57.328Z,23.99
2016-06-05T05:18:57.315Z,23.89
2016-06-05T05:19:57.302Z,23.94
2016-06-05T05:20:57.289Z,23.93
2016-06-05T05:21:57.276Z,24.02
2016-06-05T05:22:57.467Z,24
2016-06-05T05:23:57.251Z,23.97
2016-06-05T05:24:57.222Z,23.99
2016-06-05T05:25:57.225Z,23.97
2016-06-05T05:26:57.212Z,24.02
2016-06-05T05:27:57.511Z,23.99
2016-06-05T05:28:57.217Z,24
2016-06-05T05:29:57.172Z,24.02
2016-06-05T05:30:57.504Z,23.89
2016-06-05T05:31:57.147Z,23.99
2016-06-05T05:32:56.978Z,23.94
2016-06-05T05:33:57.137Z,23.99
2016-06-05T05:34:57.108Z,24.04
2016-06-05T05:35:57.095Z,23.99
2016-06-05T05:36:57.098Z,24
2016-06-05T05:37:57.085Z,24.06
2016-06-05T05:38:57.463Z,23.97
2016-06-05T05:39:57.059Z,23.87
2016-06-05T05:40:57.046Z,23.93
2016-06-05T05:41:57.018Z,24.02
2016-06-05T05:42:56.865Z,23.97
2016-06-05T05:43:57.617Z,23.89
2016-06-05T05:44:56.978Z,23.99
2016-06-05T05:45:56.982Z,23.99
2016-06-05T05:46:57.515Z,23.97
2016-06-05T05:47:56.940Z,23.89
2016-06-05T05:48:56.927Z,23.97
2016-06-05T05:49:56.945Z,23.96
2016-06-05T05:50:56.917Z,23.96
2016-06-05T05:51:56.904Z,23.97
2016-06-05T05:52:56.891Z,23.99
2016-06-05T05:53:56.878Z,24.02
2016-06-05T05:54:57.522Z,23.96
2016-06-05T05:55:56.852Z,24
2016-06-05T05:56:56.855Z,23.97
2016-06-05T05:57:56.827Z,24.05
2016-06-05T05:58:56.830Z,23.87
2016-06-05T05:59:56.660Z,23.94
2016-06-05T06:00:56.819Z,24.04
2016-06-05T06:01:56.775Z,23.97
2016-06-05T06:02:56.824Z,23.99
2016-06-05T06:03:56.749Z,23.92
2016-06-05T06:04:56.736Z,23.87
2016-06-05T06:05:56.738Z,24.05
2016-06-05T06:06:56.726Z,24.04
2016-06-05T06:07:56.728Z,24
2016-06-05T06:08:56.699Z,23.97
2016-06-05T06:09:56.671Z,24.04
2016-06-05T06:10:56.814Z,23.94
2016-06-05T06:11:56.489Z,24.06
2016-06-05T06:12:56.648Z,24.06
2016-06-05T06:13:56.651Z,24.02
2016-06-05T06:14:56.622Z,23.97
2016-06-05T06:15:56.609Z,23.92
2016-06-05T06:16:56.596Z,24.02
2016-06-05T06:17:56.567Z,23.89
2016-06-05T06:18:56.820Z,24
2016-06-05T06:19:56.557Z,23.94
2016-06-05T06:20:56.545Z,24
2016-06-05T06:21:56.531Z,23.99
2016-06-05T06:22:56.519Z,23.99
2016-06-05T06:23:56.505Z,23.97
2016-06-05T06:24:56.478Z,23.97
2016-06-05T06:25:56.480Z,23.97
2016-06-05T06:26:57.513Z,24.08
2016-06-05T06:27:56.453Z,24
2016-06-05T06:28:56.503Z,23.99
2016-06-05T06:29:56.443Z,24.04
2016-06-05T06:30:56.258Z,24.06
2016-06-05T06:31:56.246Z,24.05
2016-06-05T06:32:56.389Z,24.06
2016-06-05T06:33:56.423Z,24.11
2016-06-05T06:34:56.816Z,24.06
2016-06-05T06:35:56.194Z,24.09
2016-06-05T06:36:56.337Z,24.02
2016-06-05T06:37:56.324Z,24.04
2016-06-05T06:38:56.312Z,24.05
2016-06-05T06:39:56.315Z,24.05
2016-06-05T06:40:56.301Z,24.04
2016-06-05T06:41:56.429Z,24.05
2016-06-05T06:42:56.838Z,24.08
2016-06-05T06:43:56.325Z,24.05
2016-06-05T06:44:56.234Z,24.04
2016-06-05T06:45:56.221Z,24.06
2016-06-05T06:46:56.208Z,24.06
2016-06-05T06:47:56.212Z,24.09
2016-06-05T06:48:56.214Z,24.06
2016-06-05T06:49:56.450Z,24.06
2016-06-05T06:50:56.172Z,23.99
2016-06-05T06:51:56.159Z,24.16
2016-06-05T06:52:55.990Z,24.02
2016-06-05T06:53:56.133Z,24.05
2016-06-05T06:54:56.120Z,24.14
2016-06-05T06:55:56.107Z,24.05
2016-06-05T06:56:56.094Z,24.18
2016-06-05T06:57:56.675Z,24.14
2016-06-05T06:58:57.662Z,24.02
2016-06-05T06:59:56.055Z,24.12
2016-06-05T07:00:56.042Z,24.09
2016-06-05T07:01:56.030Z,24.15
2016-06-05T07:02:56.032Z,24.15
2016-06-05T07:03:56.004Z,24.05
2016-06-05T07:04:56.007Z,24.12
2016-06-05T07:05:56.494Z,24.09
2016-06-05T07:06:55.981Z,24.14
2016-06-05T07:07:55.952Z,24.15
2016-06-05T07:08:55.955Z,24.06
2016-06-05T07:09:55.942Z,24.14
2016-06-05T07:10:55.929Z,24.06
2016-06-05T07:11:55.915Z,24.11
2016-06-05T07:12:55.981Z,24.14
2016-06-05T07:13:56.532Z,24.06
2016-06-05T07:14:55.877Z,24.14
2016-06-05T07:15:55.865Z,24.06
2016-06-05T07:16:55.851Z,24.21
2016-06-05T07:17:55.837Z,24.18
2016-06-05T07:18:55.826Z,24.11
2016-06-05T07:19:55.813Z,24.21
2016-06-05T07:20:55.800Z,24.11
2016-06-05T07:21:56.473Z,24.16
2016-06-05T07:22:55.773Z,24.14
2016-06-05T07:23:55.761Z,24.12
2016-06-05T07:24:55.764Z,24.14
2016-06-05T07:25:55.734Z,24.19
2016-06-05T07:26:55.722Z,24.19
2016-06-05T07:27:55.569Z,24.15
2016-06-05T07:28:55.540Z,24.16
2016-06-05T07:29:55.745Z,24.15
2016-06-05T07:30:55.670Z,24.18
2016-06-05T07:31:55.658Z,24.19
2016-06-05T07:32:55.660Z,24.12
2016-06-05T07:33:55.647Z,24.12
2016-06-05T07:34:55.634Z,24.23
2016-06-05T07:35:55.605Z,24.15
2016-06-05T07:36:55.608Z,24.14
2016-06-05T07:37:55.798Z,24.16
2016-06-05T07:38:55.567Z,24.15
2016-06-05T07:39:55.569Z,24.19
2016-06-05T07:40:55.572Z,24.11
2016-06-05T07:41:55.543Z,24.12
2016-06-05T07:42:55.546Z,24.21
2016-06-05T07:43:56.440Z,24.18
2016-06-05T07:44:55.504Z,24.23
2016-06-05T07:45:56.538Z,24.16
2016-06-05T07:46:55.479Z,24.19
2016-06-05T07:47:55.466Z,24.14
2016-06-05T07:48:55.468Z,24.15
2016-06-05T07:49:55.440Z,24.16
2016-06-05T07:50:55.443Z,24.14
2016-06-05T07:51:55.414Z,24.15
2016-06-05T07:52:55.245Z,24.23
2016-06-05T07:53:55.810Z,24.14
2016-06-05T07:54:55.391Z,24.23
2016-06-05T07:55:55.362Z,24.15
2016-06-05T07:56:55.365Z,24.23
2016-06-05T07:57:55.367Z,24.23
2016-06-05T07:58:55.981Z,24.19
2016-06-05T07:59:55.311Z,24.23
2016-06-05T08:00:55.407Z,24.23
2016-06-05T08:01:55.801Z,24.18
2016-06-05T08:02:55.272Z,24.24
2016-06-05T08:03:55.290Z,24.23
2016-06-05T08:04:55.261Z,24.26
2016-06-05T08:05:55.249Z,24.23
2016-06-05T08:06:55.236Z,24.23
2016-06-05T08:07:55.222Z,24.31
2016-06-05T08:08:55.429Z,24.27
2016-06-05T08:09:55.197Z,24.26
2016-06-05T08:10:55.199Z,24.19
2016-06-05T08:11:55.171Z,24.21
2016-06-05T08:12:55.940Z,24.23
2016-06-05T08:13:55.021Z,24.24
2016-06-05T08:14:55.132Z,24.31
2016-06-05T08:15:55.118Z,24.21
2016-06-05T08:16:55.528Z,24.18
2016-06-05T08:17:55.093Z,24.23
2016-06-05T08:18:55.081Z,24.27
2016-06-05T08:19:55.067Z,24.23
2016-06-05T08:20:55.070Z,24.29
2016-06-05T08:21:55.057Z,24.23
2016-06-05T08:22:55.044Z,24.34
2016-06-05T08:23:55.032Z,24.3
2016-06-05T08:24:55.409Z,24.24
2016-06-05T08:25:55.006Z,24.3
2016-06-05T08:26:54.836Z,24.23
2016-06-05T08:27:55.011Z,24.29
2016-06-05T08:28:55.904Z,24.26
2016-06-05T08:29:54.954Z,24.31
2016-06-05T08:30:54.941Z,24.37
2016-06-05T08:31:54.928Z,24.3
2016-06-05T08:32:55.462Z,24.3
2016-06-05T08:33:54.903Z,24.31
2016-06-05T08:34:54.889Z,24.44
2016-06-05T08:35:54.892Z,24.39
2016-06-05T08:36:54.863Z,24.29
2016-06-05T08:37:54.882Z,24.29
2016-06-05T08:38:54.852Z,24.33
2016-06-05T08:39:54.840Z,24.45
2016-06-05T08:40:55.468Z,24.39
2016-06-05T08:41:54.830Z,24.39
2016-06-05T08:42:54.677Z,24.39
2016-06-05T08:43:55.132Z,24.39
2016-06-05T08:44:54.776Z,24.42
2016-06-05T08:45:54.763Z,24.46
2016-06-05T08:46:54.734Z,24.44
2016-06-05T08:47:54.721Z,24.49
2016-06-05T08:48:54.724Z,24.44
2016-06-05T08:49:54.710Z,24.46
2016-06-05T08:50:54.698Z,24.46
2016-06-05T08:51:54.685Z,24.45
2016-06-05T08:52:54.687Z,24.44
2016-06-05T08:53:54.659Z,24.42
2016-06-05T08:54:54.645Z,24.46
2016-06-05T08:55:54.648Z,24.49
2016-06-05T08:56:54.714Z,24.45
2016-06-05T08:57:54.826Z,24.48
2016-06-05T08:58:54.609Z,24.45
2016-06-05T08:59:54.597Z,24.45
2016-06-05T09:00:54.569Z,24.45
2016-06-05T09:01:54.572Z,24.48
2016-06-05T09:02:54.558Z,24.48
2016-06-05T09:03:54.561Z,24.46
2016-06-05T09:04:55.470Z,24.44
2016-06-05T09:05:54.536Z,24.45
2016-06-05T09:06:54.506Z,24.49
2016-06-05T09:07:54.494Z,24.53
2016-06-05T09:08:54.481Z,24.55
2016-06-05T09:09:54.468Z,24.55
2016-06-05T09:10:54.455Z,24.53
2016-06-05T09:11:54.457Z,24.55
2016-06-05T09:12:54.897Z,24.51
2016-06-05T09:13:54.432Z,24.46
2016-06-05T09:14:54.418Z,24.52
2016-06-05T09:15:54.390Z,24.52
2016-06-05T09:16:54.377Z,24.45
2016-06-05T09:17:54.365Z,24.46
2016-06-05T09:18:54.351Z,24.45
2016-06-05T09:19:54.354Z,24.6
2016-06-05T09:20:54.794Z,24.61
2016-06-05T09:21:54.329Z,24.56
2016-06-05T09:22:54.331Z,24.61
2016-06-05T09:23:54.301Z,24.61
2016-06-05T09:24:54.289Z,24.7
2016-06-05T09:25:54.277Z,24.74
2016-06-05T09:26:54.264Z,24.6
2016-06-05T09:27:54.375Z,24.68
2016-06-05T09:28:54.097Z,24.64
2016-06-05T09:29:54.225Z,24.67
2016-06-05T09:30:54.228Z,24.7
2016-06-05T09:31:54.214Z,24.64
2016-06-05T09:32:54.186Z,24.61
2016-06-05T09:33:54.189Z,24.64
2016-06-05T09:34:54.176Z,24.64
2016-06-05T09:35:54.163Z,24.68
2016-06-05T09:36:54.149Z,24.64
2016-06-05T09:37:54.136Z,24.66
2016-06-05T09:38:54.124Z,24.66
2016-06-05T09:39:54.111Z,24.66
2016-06-05T09:40:54.097Z,24.67
2016-06-05T09:41:54.101Z,24.64
2016-06-05T09:42:53.916Z,24.66
2016-06-05T09:43:54.527Z,24.67
2016-06-05T09:44:54.046Z,24.75
2016-06-05T09:45:54.033Z,24.64
2016-06-05T09:46:54.021Z,24.71
2016-06-05T09:47:54.023Z,24.74
2016-06-05T09:48:54.010Z,24.64
2016-06-05T09:49:53.857Z,24.74
2016-06-05T09:50:53.969Z,24.61
2016-06-05T09:51:53.956Z,24.7
2016-06-05T09:52:53.943Z,24.68
2016-06-05T09:53:53.789Z,24.8
2016-06-05T09:54:53.932Z,24.86
2016-06-05T09:55:53.920Z,24.74
2016-06-05T09:56:53.907Z,24.79
2016-06-05T09:57:54.222Z,24.75
2016-06-05T09:58:53.740Z,24.74
2016-06-05T09:59:53.884Z,24.66
2016-06-05T10:00:53.856Z,24.66
2016-06-05T10:01:53.858Z,24.66
2016-06-05T10:02:53.829Z,24.67
2016-06-05T10:03:53.831Z,24.63
2016-06-05T10:04:53.803Z,24.64
2016-06-05T10:05:53.805Z,24.68
2016-06-05T10:06:53.778Z,24.67
2016-06-05T10:07:53.764Z,24.59
2016-06-05T10:08:53.767Z,24.68
2016-06-05T10:09:53.800Z,24.66
2016-06-05T10:10:53.741Z,24.52
2016-06-05T10:11:53.728Z,24.56
2016-06-05T10:12:54.356Z,24.52
2016-06-05T10:13:53.843Z,24.55
2016-06-05T10:14:53.688Z,24.61
2016-06-05T10:15:53.676Z,24.66
2016-06-05T10:16:53.694Z,24.64
2016-06-05T10:17:53.822Z,24.61
2016-06-05T10:18:53.637Z,24.7
2016-06-05T10:19:53.640Z,24.63
2016-06-05T10:20:53.612Z,24.64
2016-06-05T10:21:53.598Z,24.71
2016-06-05T10:22:53.585Z,24.75
2016-06-05T10:23:53.588Z,24.79
2016-06-05T10:24:53.560Z,24.66
2016-06-05T10:25:53.813Z,24.63
2016-06-05T10:26:53.550Z,24.75
2016-06-05T10:27:53.661Z,24.75
2016-06-05T10:28:54.415Z,24.7
2016-06-05T10:29:53.512Z,24.61
2016-06-05T10:30:53.342Z,24.68
2016-06-05T10:31:53.500Z,24.64
2016-06-05T10:32:53.472Z,24.67
2016-06-05T10:33:53.819Z,24.63
2016-06-05T10:34:53.462Z,24.68
2016-06-05T10:35:53.433Z,24.64
2016-06-05T10:36:53.420Z,24.7
2016-06-05T10:37:53.423Z,24.63
2016-06-05T10:38:53.410Z,24.71
2016-06-05T10:39:53.381Z,24.7
2016-06-05T10:40:53.384Z,24.75
2016-06-05T10:41:53.808Z,24.64
2016-06-05T10:42:53.499Z,24.75
2016-06-05T10:43:53.299Z,24.68
2016-06-05T10:44:53.332Z,24.63
2016-06-05T10:45:53.320Z,24.79
2016-06-05T10:46:53.307Z,24.64
2016-06-05T10:47:53.293Z,24.74
2016-06-05T10:48:53.280Z,24.74
2016-06-05T10:49:53.862Z,24.71
2016-06-05T10:50:53.255Z,24.8
2016-06-05T10:51:53.242Z,24.71
2016-06-05T10:52:53.245Z,24.79
2016-06-05T10:53:53.231Z,24.79
2016-06-05T10:54:53.219Z,24.8
2016-06-05T10:55:53.190Z,24.75
2016-06-05T10:56:53.037Z,24.79
2016-06-05T10:57:53.867Z,24.79
2016-06-05T10:58:54.448Z,24.77
2016-06-05T10:59:53.154Z,24.9
2016-06-05T11:00:53.156Z,24.87
2016-06-05T11:01:53.128Z,24.86
2016-06-05T11:02:52.975Z,24.92
2016-06-05T11:03:53.103Z,24.87
2016-06-05T11:04:53.090Z,24.86
2016-06-05T11:05:53.139Z,24.9
2016-06-05T11:06:53.078Z,24.84
2016-06-05T11:07:53.113Z,24.93
2016-06-05T11:08:53.053Z,24.83
2016-06-05T11:09:53.025Z,24.84
2016-06-05T11:10:53.028Z,24.82
2016-06-05T11:11:52.999Z,24.92
2016-06-05T11:12:53.392Z,24.98
2016-06-05T11:13:53.911Z,24.87
2016-06-05T11:14:52.976Z,24.93
2016-06-05T11:15:52.962Z,24.92
2016-06-05T11:16:52.949Z,24.8
2016-06-05T11:17:52.937Z,24.84
2016-06-05T11:18:52.940Z,24.92
2016-06-05T11:19:52.911Z,24.93
2016-06-05T11:20:52.898Z,24.82
2016-06-05T11:21:53.135Z,24.83
2016-06-05T11:22:52.871Z,24.8
2016-06-05T11:23:52.874Z,24.8
2016-06-05T11:24:52.862Z,24.8
2016-06-05T11:25:52.709Z,24.8
2016-06-05T11:26:52.837Z,24.87
2016-06-05T11:27:53.855Z,24.84
2016-06-05T11:28:53.295Z,24.86
2016-06-05T11:29:53.141Z,24.83
2016-06-05T11:30:52.784Z,24.93
2016-06-05T11:31:52.787Z,24.86
2016-06-05T11:32:52.774Z,24.83
2016-06-05T11:33:52.761Z,24.84
2016-06-05T11:34:52.733Z,24.86
2016-06-05T11:35:52.736Z,24.89
2016-06-05T11:36:52.753Z,24.99
2016-06-05T11:37:53.162Z,24.93
2016-06-05T11:38:52.681Z,24.9
2016-06-05T11:39:52.668Z,24.98
2016-06-05T11:40:52.670Z,24.9
2016-06-05T11:41:52.658Z,24.99
2016-06-05T11:42:54.050Z,25.01
2016-06-05T11:43:52.757Z,24.99
2016-06-05T11:44:52.775Z,24.97
2016-06-05T11:45:52.622Z,24.89
2016-06-05T11:46:52.608Z,25.07
2016-06-05T11:47:52.596Z,25.01
2016-06-05T11:48:52.567Z,24.98
2016-06-05T11:49:52.569Z,24.98
2016-06-05T11:50:52.557Z,24.99
2016-06-05T11:51:52.528Z,25.05
2016-06-05T11:52:52.765Z,25.05
2016-06-05T11:53:52.519Z,25.01
2016-06-05T11:54:52.505Z,25.04
2016-06-05T11:55:52.492Z,25.07
2016-06-05T11:56:52.495Z,25.12
2016-06-05T11:57:52.701Z,25.12
2016-06-05T11:58:52.312Z,25.12
2016-06-05T11:59:52.440Z,25.07
2016-06-05T12:00:52.771Z,25.11
2016-06-05T12:01:52.414Z,25.12
2016-06-05T12:02:52.401Z,25.19
2016-06-05T12:03:52.389Z,25.23
2016-06-05T12:04:52.375Z,25.19
2016-06-05T12:05:52.363Z,25.16
2016-06-05T12:06:52.366Z,25.17
2016-06-05T12:07:52.399Z,25.11
2016-06-05T12:08:52.778Z,25.16
2016-06-05T12:09:52.328Z,25.16
2016-06-05T12:10:52.330Z,25.12
2016-06-05T12:11:52.301Z,25.14
2016-06-05T12:12:52.304Z,25.16
2016-06-05T12:13:52.291Z,25.16
2016-06-05T12:14:52.277Z,25.17
2016-06-05T12:15:52.250Z,25.19
2016-06-05T12:16:52.846Z,25.2
2016-06-05T12:17:52.223Z,25.2
2016-06-05T12:18:52.227Z,25.08
2016-06-05T12:19:52.057Z,25.01
2016-06-05T12:20:52.060Z,25.09
2016-06-05T12:21:52.188Z,25.04
2016-06-05T12:22:52.033Z,25.12
2016-06-05T12:23:52.161Z,25.12
2016-06-05T12:24:52.820Z,25.05
2016-06-05T12:25:52.136Z,25.05
2016-06-05T12:26:52.122Z,25.08
2016-06-05T12:27:53.031Z,25.02
2016-06-05T12:28:52.518Z,25.08
2016-06-05T12:29:52.099Z,25.07
2016-06-05T12:30:52.070Z,25.02
2016-06-05T12:31:52.073Z,25.02
2016-06-05T12:32:52.107Z,25.07
2016-06-05T12:33:52.048Z,25.02
2016-06-05T12:34:52.035Z,25.04
2016-06-05T12:35:52.037Z,25.02
2016-06-05T12:36:52.008Z,25.09
2016-06-05T12:37:51.996Z,25.11
2016-06-05T12:38:51.983Z,25.08
2016-06-05T12:39:51.970Z,25.04
2016-06-05T12:40:52.113Z,25.01
2016-06-05T12:41:51.945Z,25.08
2016-06-05T12:42:52.494Z,25.07
2016-06-05T12:43:51.934Z,25.08
2016-06-05T12:44:51.906Z,25.09
2016-06-05T12:45:51.924Z,25.07
2016-06-05T12:46:51.895Z,25.08
2016-06-05T12:47:51.866Z,25.07
2016-06-05T12:48:52.119Z,25.08
2016-06-05T12:49:51.872Z,25.07
2016-06-05T12:50:51.858Z,25.11
2016-06-05T12:51:51.846Z,25.04
2016-06-05T12:52:51.833Z,25.01
2016-06-05T12:53:51.821Z,25.02
2016-06-05T12:54:51.791Z,25.04